首页
METAR-TAF:

METAR-TAF

机场 :

帕尔杜比采, 捷克共和国

纬度: 50-00-48N, 经度: 15-44-19E, 海拔: 226米

当前天气观测

该预报发布于18分钟前的00:00 UTC
静风
温度 17°C
湿度 94%
气压 1019 hPa
能见度10公里或以上
1500米以下无云,无积雨云

METAR: LKPD 120000Z 00000KT CAVOK 17/16 Q1019 RMK BLU

时间: 02:18 (00:18 UTC)

预报

该预报发布于1小时和18分钟前的23:00 UTC
预报有效从12日的 00点(UTC)到 13日的 00点(UTC)
风速2节,风向多变
能见度10公里或以上
1500米以下无云,无积雨云
几率 40% :
短暂存在
从 12日的 02点(UTC)到 12日的 05点(UTC)
能見度: 5000
浅雾, 轻雾
成为
从 12日的 08点(UTC)到 12日的 10点(UTC)
风速6节,风向东转东北
短暂存在
从 12日的 10点(UTC)到 12日的 17点(UTC)
能見度: 7000
散云层高于4000英尺, 塔状积云.
阵雨

TAF: LKPD 112300Z 1200/1300 VRB02KT CAVOK PROB40 TEMPO 1202/1205 5000 MIFG BR BECMG 1208/1210 07006KT TEMPO 1210/1217 7000 SHRA SCT040TCU

超过4000个机场的气象观测和天气预报(METAR&TAF报告)。

可查询的气象台以黄色和红色小点在地图上表示。

将鼠标移到小点上方,可查看气象台名称。

然后点击查看天气观测和预报。

如需切换地图:点击带黑十字的绿色按钮放大地图;点击带横线的绿色按钮缩小地图;或者点击绿色箭头查看邻近地区的地图。


METAR-TAF: